createdAt,value
2023-02-19T00:04:22.656Z,9.90
2023-02-19T00:09:19.643Z,9.80
2023-02-19T00:11:47.870Z,9.30
2023-02-19T00:14:19.210Z,9.70
2023-02-19T00:19:17.896Z,9.50
2023-02-19T00:21:45.063Z,9.70
2023-02-19T00:24:13.792Z,10.80
2023-02-19T00:26:41.430Z,9.90
2023-02-19T00:34:06.335Z,9.60
2023-02-19T00:36:37.541Z,9.80
2023-02-19T00:39:06.634Z,9.60
2023-02-19T00:41:34.009Z,9.70
2023-02-19T00:44:04.904Z,9.60
2023-02-19T00:46:39.530Z,9.50
2023-02-19T00:49:07.996Z,9.20
2023-02-19T00:51:37.874Z,9.60
2023-02-19T00:54:06.483Z,9.60
2023-02-19T01:01:28.404Z,9.70
2023-02-19T01:06:23.673Z,10.30
2023-02-19T01:08:51.377Z,9.40
2023-02-19T01:16:22.178Z,9.50
2023-02-19T01:21:24.403Z,9.10
2023-02-19T01:23:52.665Z,9.40
2023-02-19T01:26:23.139Z,9.30
2023-02-19T01:28:50.321Z,9.30
2023-02-19T01:31:24.310Z,8.30
2023-02-19T01:33:57.833Z,8.70
2023-02-19T01:36:26.101Z,9.40
2023-02-19T01:38:53.691Z,9.40
2023-02-19T01:41:24.622Z,9.30
2023-02-19T01:44:25.543Z,9.30
2023-02-19T01:49:37.180Z,9.40
2023-02-19T01:52:16.756Z,9.50
2023-02-19T01:54:45.621Z,9.50
2023-02-19T01:57:20.667Z,9.50
2023-02-19T01:59:53.314Z,9.40
2023-02-19T02:04:48.841Z,8.90
2023-02-19T02:12:53.349Z,9.30
2023-02-19T02:18:06.158Z,9.20
2023-02-19T02:20:33.458Z,9.40
2023-02-19T02:23:35.488Z,9.20
2023-02-19T02:26:40.976Z,9.00
2023-02-19T02:29:47.114Z,9.10
2023-02-19T02:32:26.097Z,9.30
2023-02-19T02:35:08.078Z,9.20
2023-02-19T02:37:37.473Z,9.00
2023-02-19T02:40:06.514Z,9.10
2023-02-19T02:42:35.456Z,9.20
2023-02-19T02:45:37.328Z,8.20
2023-02-19T02:48:13.252Z,9.20
2023-02-19T02:51:18.113Z,8.90
2023-02-19T02:54:15.855Z,9.00
2023-02-19T02:56:46.036Z,9.00
2023-02-19T02:59:16.752Z,9.00
2023-02-19T03:02:10.958Z,9.00
2023-02-19T03:05:12.160Z,9.00
2023-02-19T03:07:41.787Z,9.00
2023-02-19T03:10:13.840Z,9.00
2023-02-19T03:15:54.514Z,8.90
2023-02-19T03:18:42.401Z,8.80
2023-02-19T03:21:10.545Z,8.80
2023-02-19T03:26:26.871Z,8.80
2023-02-19T03:31:44.727Z,8.80
2023-02-19T03:34:26.341Z,8.80
2023-02-19T03:37:30.379Z,8.90
2023-02-19T03:42:56.268Z,9.00
2023-02-19T03:45:53.760Z,8.80
2023-02-19T03:51:00.261Z,8.70
2023-02-19T03:53:38.192Z,8.70
2023-02-19T03:56:16.209Z,8.60
2023-02-19T03:59:01.901Z,8.90
2023-02-19T04:02:06.519Z,8.90
2023-02-19T04:04:47.370Z,8.60
2023-02-19T04:07:14.728Z,8.90
2023-02-19T04:09:47.252Z,8.80
2023-02-19T04:12:19.195Z,8.90
2023-02-19T04:14:53.785Z,8.90
2023-02-19T04:17:27.608Z,8.80
2023-02-19T04:19:56.353Z,8.60
2023-02-19T04:24:55.358Z,8.70
2023-02-19T05:06:41.681Z,8.70
2023-02-19T05:18:58.209Z,8.80
2023-02-19T05:23:53.201Z,8.40
2023-02-19T05:26:22.909Z,8.40
2023-02-19T05:28:53.072Z,8.30
2023-02-19T05:33:51.225Z,8.10
2023-02-19T05:36:20.956Z,8.40
2023-02-19T05:41:19.742Z,8.40
2023-02-19T05:43:48.721Z,8.30
2023-02-19T05:46:19.786Z,8.60
2023-02-19T05:48:48.321Z,8.50
2023-02-19T05:51:19.737Z,8.30
2023-02-19T05:53:47.392Z,8.20
2023-02-19T05:56:27.553Z,8.20
2023-02-19T06:01:25.794Z,8.30
2023-02-19T06:06:25.102Z,8.10
2023-02-19T06:08:52.407Z,8.10
2023-02-19T06:16:14.417Z,8.20
2023-02-19T06:18:41.626Z,8.20
2023-02-19T06:21:11.203Z,8.20
2023-02-19T06:23:39.499Z,8.40
2023-02-19T06:26:21.710Z,8.30
2023-02-19T06:28:51.762Z,8.20
2023-02-19T06:31:20.847Z,8.20
2023-02-19T06:36:20.237Z,8.30
2023-02-19T06:46:12.654Z,8.40
2023-02-19T06:56:39.483Z,8.20
2023-02-19T06:59:14.230Z,8.20
2023-02-19T07:04:09.120Z,8.20
2023-02-19T07:06:37.461Z,8.30
2023-02-19T07:09:06.766Z,8.30
2023-02-19T07:11:36.108Z,8.30
2023-02-19T07:14:05.602Z,8.30
2023-02-19T07:21:29.111Z,8.40
2023-02-19T07:23:56.542Z,8.00
2023-02-19T07:31:22.278Z,8.20
2023-02-19T07:33:49.682Z,8.50
2023-02-19T07:36:19.137Z,8.30
2023-02-19T07:46:12.836Z,8.40
2023-02-19T07:48:42.050Z,7.90
2023-02-19T07:51:19.035Z,8.40
2023-02-19T07:53:47.603Z,8.20
2023-02-19T08:01:17.125Z,8.50
2023-02-19T08:03:45.427Z,8.40
2023-02-19T08:11:26.789Z,8.50
2023-02-19T08:16:36.721Z,8.50
2023-02-19T08:21:35.358Z,8.60
2023-02-19T08:38:49.080Z,8.70
2023-02-19T08:41:16.545Z,8.70
2023-02-19T08:46:12.148Z,8.70
2023-02-19T08:51:11.546Z,8.80
2023-02-19T08:53:40.834Z,8.80
2023-02-19T08:56:14.162Z,8.70
2023-02-19T09:01:12.101Z,8.70
2023-02-19T09:11:04.504Z,8.30
2023-02-19T09:43:23.851Z,9.00
2023-02-19T09:46:02.665Z,8.90
2023-02-19T09:50:58.953Z,9.00
2023-02-19T09:53:31.092Z,9.00
2023-02-19T09:58:32.711Z,9.00
2023-02-19T10:01:03.931Z,9.00
2023-02-19T10:03:40.701Z,9.10
2023-02-19T10:06:29.736Z,9.20
2023-02-19T10:09:14.593Z,9.10
2023-02-19T10:11:42.414Z,9.20
2023-02-19T10:14:24.791Z,9.20
2023-02-19T10:24:34.212Z,9.20
2023-02-19T10:32:18.203Z,9.10
2023-02-19T10:37:17.526Z,9.20
2023-02-19T10:39:58.516Z,9.10
2023-02-19T10:45:02.126Z,9.20
2023-02-19T10:47:32.941Z,9.10
2023-02-19T10:50:05.035Z,9.20
2023-02-19T10:52:36.377Z,9.20
2023-02-19T10:55:30.017Z,9.20
2023-02-19T11:00:30.618Z,9.30
2023-02-19T11:03:36.169Z,9.30
2023-02-19T11:06:09.741Z,9.30
2023-02-19T11:08:54.107Z,9.30
2023-02-19T11:11:39.834Z,9.30
2023-02-19T11:14:18.604Z,9.20
2023-02-19T11:16:49.763Z,9.30
2023-02-19T11:19:36.739Z,9.30
2023-02-19T11:22:32.873Z,9.30
2023-02-19T11:25:21.622Z,9.20
2023-02-19T11:28:25.940Z,9.40
2023-02-19T11:30:52.885Z,9.50
2023-02-19T11:33:30.203Z,10.50
2023-02-19T11:36:18.191Z,9.40
2023-02-19T11:41:24.791Z,9.30
2023-02-19T11:44:17.334Z,9.30
2023-02-19T11:47:18.762Z,9.50
2023-02-19T11:50:29.441Z,9.50
2023-02-19T11:53:16.915Z,9.50
2023-02-19T12:02:02.781Z,9.30
2023-02-19T12:05:19.035Z,9.70
2023-02-19T12:08:36.103Z,9.60
2023-02-19T12:11:24.295Z,9.50
2023-02-19T12:14:41.993Z,9.70
2023-02-19T12:18:04.150Z,9.70
2023-02-19T12:21:11.162Z,9.60
2023-02-19T12:23:44.472Z,9.50
2023-02-19T12:26:37.444Z,9.80
2023-02-19T12:32:06.467Z,9.90
2023-02-19T12:35:09.469Z,9.70
2023-02-19T12:38:00.462Z,9.80
2023-02-19T12:41:04.861Z,9.60
2023-02-19T12:43:33.741Z,9.60
2023-02-19T12:46:17.109Z,9.80
2023-02-19T12:48:55.625Z,9.80
2023-02-19T12:51:47.568Z,9.90
2023-02-19T12:54:27.248Z,10.00
2023-02-19T12:57:21.091Z,9.80
2023-02-19T13:00:04.690Z,10.10
2023-02-19T13:02:50.810Z,9.60
2023-02-19T13:05:58.798Z,9.60
2023-02-19T13:08:42.061Z,9.70
2023-02-19T13:11:36.718Z,9.70
2023-02-19T13:14:31.309Z,9.60
2023-02-19T13:17:08.882Z,9.50
2023-02-19T13:19:37.562Z,9.50
2023-02-19T13:22:37.605Z,9.50
2023-02-19T13:25:07.146Z,9.50
2023-02-19T13:28:04.405Z,9.50
2023-02-19T13:30:53.975Z,9.60
2023-02-19T13:33:32.572Z,9.50
2023-02-19T13:36:15.266Z,9.30
2023-02-19T13:38:48.548Z,9.10
2023-02-19T13:41:34.873Z,8.90
2023-02-19T13:44:08.281Z,8.90
2023-02-19T13:46:43.262Z,9.10
2023-02-19T13:49:41.940Z,8.80
2023-02-19T13:52:33.362Z,8.90
2023-02-19T13:55:46.536Z,9.10
2023-02-19T13:58:39.837Z,9.10
2023-02-19T14:01:12.753Z,9.10
2023-02-19T14:06:10.791Z,8.90
2023-02-19T14:08:52.675Z,9.20
2023-02-19T14:11:42.099Z,9.50
2023-02-19T14:14:48.757Z,9.10
2023-02-19T14:17:43.681Z,8.90
2023-02-19T14:22:47.358Z,8.90
2023-02-19T14:25:43.422Z,9.00
2023-02-19T14:28:10.166Z,9.10
2023-02-19T14:31:01.188Z,9.10
2023-02-19T14:33:43.203Z,9.10
2023-02-19T14:36:23.565Z,9.50
2023-02-19T14:38:58.849Z,9.20
2023-02-19T14:41:29.837Z,9.20
2023-02-19T14:43:59.190Z,9.30
2023-02-19T14:46:40.091Z,9.30
2023-02-19T14:49:51.422Z,9.60
2023-02-19T14:52:28.430Z,9.50
2023-02-19T14:55:01.584Z,9.40
2023-02-19T14:57:36.744Z,9.40
2023-02-19T15:00:23.244Z,9.40
2023-02-19T15:02:53.153Z,9.40
2023-02-19T15:05:29.098Z,9.50
2023-02-19T15:08:00.046Z,9.60
2023-02-19T15:10:32.268Z,9.50
2023-02-19T15:13:01.461Z,9.50
2023-02-19T15:15:32.580Z,9.50
2023-02-19T15:18:01.341Z,9.50
2023-02-19T15:20:35.191Z,9.40
2023-02-19T15:25:36.123Z,9.50
2023-02-19T15:28:24.122Z,9.50
2023-02-19T15:31:06.259Z,9.30
2023-02-19T15:36:05.920Z,9.30
2023-02-19T15:38:33.649Z,9.30
2023-02-19T15:46:21.963Z,9.30
2023-02-19T15:49:15.793Z,9.40
2023-02-19T15:51:55.226Z,9.40
2023-02-19T15:56:55.695Z,9.30
2023-02-19T15:59:40.385Z,9.50
2023-02-19T16:02:13.416Z,9.30
2023-02-19T16:04:45.114Z,9.50
2023-02-19T16:07:31.836Z,9.30
2023-02-19T16:10:22.202Z,9.40
2023-02-19T16:12:57.833Z,9.40
2023-02-19T16:15:26.920Z,9.40
2023-02-19T16:20:29.959Z,9.30
2023-02-19T16:23:03.911Z,9.30
2023-02-19T16:25:41.884Z,9.30
2023-02-19T16:28:24.394Z,9.20
2023-02-19T16:31:04.970Z,9.10
2023-02-19T16:33:39.732Z,9.20
2023-02-19T16:36:41.467Z,9.30
2023-02-19T16:41:48.153Z,9.20
2023-02-19T16:44:21.268Z,9.30
2023-02-19T16:46:58.027Z,9.10
2023-02-19T17:04:15.588Z,9.10
2023-02-19T17:16:42.385Z,9.00
2023-02-19T17:19:19.998Z,9.00
2023-02-19T17:24:15.273Z,9.00
2023-02-19T17:29:15.445Z,9.10
2023-02-19T17:39:11.886Z,9.00
2023-02-19T17:56:26.156Z,9.10
2023-02-19T17:58:57.504Z,8.80
2023-02-19T18:08:50.552Z,8.90
2023-02-19T18:11:18.958Z,8.90
2023-02-19T18:16:16.035Z,8.80
2023-02-19T18:18:44.531Z,8.80
2023-02-19T18:21:13.230Z,8.90
2023-02-19T18:26:11.006Z,8.80
2023-02-19T18:28:38.718Z,8.90
2023-02-19T18:31:08.325Z,9.00
2023-02-19T18:33:35.500Z,8.80
2023-02-19T18:43:26.336Z,9.00
2023-02-19T18:48:20.896Z,8.80
2023-02-19T18:50:47.833Z,8.80
2023-02-19T18:53:14.901Z,8.80
2023-02-19T18:55:41.817Z,8.80
2023-02-19T19:07:59.637Z,8.90
2023-02-19T19:10:27.133Z,8.90
2023-02-19T19:12:57.769Z,8.90
2023-02-19T19:15:30.846Z,8.90
2023-02-19T19:25:25.192Z,9.90
2023-02-19T19:27:56.341Z,8.80
2023-02-19T19:30:23.422Z,8.80
2023-02-19T20:00:23.507Z,8.70
2023-02-19T20:07:57.309Z,8.70
2023-02-19T20:15:23.373Z,8.70
2023-02-19T20:22:45.880Z,8.70
2023-02-19T20:30:11.331Z,8.70
2023-02-19T20:35:06.069Z,8.70
2023-02-19T21:02:29.343Z,8.90
2023-02-19T21:04:58.123Z,8.50
2023-02-19T21:22:27.286Z,8.50
2023-02-19T21:47:22.732Z,8.40
2023-02-19T22:02:12.840Z,8.40
2023-02-19T22:32:03.344Z,8.20
2023-02-19T22:52:07.692Z,8.20
2023-02-19T22:54:37.003Z,8.40
2023-02-19T23:09:30.467Z,8.40
2023-02-19T23:12:11.748Z,8.40
2023-02-19T23:22:02.515Z,8.40
2023-02-19T23:26:56.902Z,8.30
2023-02-19T23:29:26.564Z,8.30
2023-02-19T23:31:54.768Z,8.40
2023-02-19T23:36:51.091Z,8.30
2023-02-19T23:39:21.681Z,8.30
2023-02-19T23:41:55.338Z,8.30
2023-02-19T23:44:24.688Z,8.10
2023-02-19T23:46:52.238Z,8.20
